createdAt,value
2023-04-19T00:01:32.242Z,84.72
2023-04-19T00:04:20.607Z,84.39
2023-04-19T00:07:07.950Z,83.93
2023-04-19T00:09:54.499Z,83.41
2023-04-19T00:12:40.974Z,83.22
2023-04-19T00:15:27.980Z,82.65
2023-04-19T00:18:14.678Z,82.41
2023-04-19T00:21:02.266Z,81.66
2023-04-19T00:23:49.012Z,81.63
2023-04-19T00:26:35.423Z,81.48
2023-04-19T00:29:22.665Z,81.11
2023-04-19T00:32:09.389Z,81.02
2023-04-19T00:34:57.545Z,80.68
2023-04-19T00:37:44.517Z,80.85
2023-04-19T00:40:33.496Z,81.14
2023-04-19T00:43:20.900Z,80.98
2023-04-19T00:46:07.734Z,81.31
2023-04-19T00:48:55.104Z,81.13
2023-04-19T00:51:42.011Z,81.45
2023-04-19T00:54:30.864Z,81.60
2023-04-19T00:57:17.825Z,82.12
2023-04-19T01:00:09.465Z,82.31
2023-04-19T01:02:56.279Z,82.61
2023-04-19T01:05:42.651Z,82.88
2023-04-19T01:08:32.334Z,83.27
2023-04-19T01:11:18.615Z,83.81
2023-04-19T01:14:05.173Z,84.15
2023-04-19T01:16:52.527Z,84.30
2023-04-19T01:19:39.197Z,84.68
2023-04-19T01:22:27.703Z,85.07
2023-04-19T01:25:14.071Z,85.70
2023-04-19T01:28:02.533Z,85.85
2023-04-19T01:30:53.470Z,86.08
2023-04-19T01:33:40.100Z,85.98
2023-04-19T01:36:29.078Z,86.56
2023-04-19T01:39:16.141Z,87.04
2023-04-19T01:42:02.513Z,87.00
2023-04-19T01:44:49.986Z,86.90
2023-04-19T01:47:36.652Z,86.90
2023-04-19T01:50:23.153Z,86.99
2023-04-19T01:53:11.413Z,87.15
2023-04-19T01:55:57.941Z,87.35
2023-04-19T01:58:46.839Z,87.60
2023-04-19T02:01:35.182Z,87.64
2023-04-19T02:04:22.800Z,87.46
2023-04-19T02:07:09.139Z,87.48
2023-04-19T02:09:55.326Z,87.94
2023-04-19T02:12:42.425Z,88.12
2023-04-19T02:15:30.522Z,88.22
2023-04-19T02:18:17.933Z,88.29
2023-04-19T02:21:09.083Z,87.95
2023-04-19T02:23:55.415Z,88.17
2023-04-19T02:26:41.675Z,88.21
2023-04-19T02:29:27.860Z,88.31
2023-04-19T02:32:14.312Z,88.68
2023-04-19T02:35:00.967Z,89.10
2023-04-19T02:37:48.856Z,89.03
2023-04-19T02:40:35.407Z,89.55
2023-04-19T02:43:21.872Z,89.40
2023-04-19T02:46:09.922Z,89.39
2023-04-19T02:48:56.373Z,89.55
2023-04-19T02:51:42.762Z,89.76
2023-04-19T02:54:29.976Z,90.02
2023-04-19T02:57:16.620Z,90.40
2023-04-19T03:00:06.146Z,90.27
2023-04-19T03:02:53.137Z,90.29
2023-04-19T03:05:40.413Z,90.27
2023-04-19T03:08:27.081Z,90.02
2023-04-19T03:11:17.268Z,89.83
2023-04-19T03:14:03.877Z,89.91
2023-04-19T03:16:50.477Z,90.07
2023-04-19T03:19:38.738Z,90.18
2023-04-19T03:22:25.466Z,90.24
2023-04-19T03:25:13.700Z,90.02
2023-04-19T03:28:02.394Z,90.24
2023-04-19T03:31:08.634Z,89.79
2023-04-19T03:33:55.745Z,89.97
2023-04-19T03:36:46.734Z,90.05
2023-04-19T03:39:35.359Z,89.63
2023-04-19T03:42:23.502Z,89.38
2023-04-19T03:45:31.183Z,89.46
2023-04-19T03:48:17.712Z,89.36
2023-04-19T03:51:07.058Z,89.41
2023-04-19T03:53:54.266Z,89.06
2023-04-19T03:56:41.240Z,88.72
2023-04-19T03:59:28.337Z,88.21
2023-04-19T04:02:15.346Z,87.93
2023-04-19T04:05:03.993Z,87.66
2023-04-19T04:07:51.259Z,87.25
2023-04-19T04:10:38.386Z,86.92
2023-04-19T04:13:25.435Z,86.23
2023-04-19T04:16:21.926Z,85.88
2023-04-19T04:19:09.871Z,85.30
2023-04-19T04:21:59.724Z,84.88
2023-04-19T04:24:47.422Z,84.27
2023-04-19T04:27:56.306Z,83.78
2023-04-19T04:30:45.509Z,83.44
2023-04-19T04:33:32.186Z,82.41
2023-04-19T04:36:29.446Z,81.96
2023-04-19T04:39:17.661Z,81.74
2023-04-19T04:42:07.436Z,81.23
2023-04-19T04:44:57.843Z,80.95
2023-04-19T04:47:45.805Z,80.49
2023-04-19T04:50:32.778Z,80.01
2023-04-19T04:53:21.820Z,79.35
2023-04-19T04:56:08.877Z,79.09
2023-04-19T04:58:56.506Z,79.01
2023-04-19T05:01:48.604Z,78.28
2023-04-19T05:04:35.735Z,77.79
2023-04-19T05:07:26.447Z,77.65
2023-04-19T05:10:13.588Z,77.74
2023-04-19T05:13:05.382Z,76.52
2023-04-19T05:15:52.472Z,76.72
2023-04-19T05:18:41.632Z,76.50
2023-04-19T05:21:28.454Z,76.26
2023-04-19T05:24:15.848Z,75.88
2023-04-19T05:27:04.606Z,75.84
2023-04-19T05:29:53.236Z,75.57
2023-04-19T05:32:42.849Z,75.38
2023-04-19T05:35:33.717Z,74.19
2023-04-19T05:38:26.988Z,73.52
2023-04-19T05:41:20.444Z,72.80
2023-04-19T05:44:09.430Z,72.40
2023-04-19T05:46:56.060Z,71.91
2023-04-19T05:50:05.386Z,71.60
2023-04-19T05:52:56.039Z,71.22
2023-04-19T05:55:48.309Z,71.21
2023-04-19T05:58:35.208Z,70.23
2023-04-19T06:01:23.624Z,70.07
2023-04-19T06:04:11.039Z,69.43
2023-04-19T06:06:59.344Z,69.31
2023-04-19T06:09:45.995Z,69.19
2023-04-19T06:12:32.415Z,68.68
2023-04-19T06:15:21.925Z,68.81
2023-04-19T06:18:18.653Z,68.19
2023-04-19T06:21:06.384Z,67.74
2023-04-19T06:23:56.453Z,67.04
2023-04-19T06:26:44.041Z,66.20
2023-04-19T06:29:30.269Z,66.18
2023-04-19T06:32:17.212Z,64.97
2023-04-19T06:35:05.885Z,64.81
2023-04-19T06:37:52.266Z,63.17
2023-04-19T06:40:38.563Z,62.11
2023-04-19T06:43:27.238Z,61.47
2023-04-19T06:46:14.536Z,61.51
2023-04-19T06:49:01.706Z,60.78
2023-04-19T06:51:48.975Z,59.96
2023-04-19T06:54:35.763Z,58.56
2023-04-19T06:57:25.519Z,56.63
2023-04-19T07:00:13.238Z,53.94
2023-04-19T07:03:00.927Z,52.33
2023-04-19T07:05:52.177Z,50.15
2023-04-19T07:08:48.816Z,47.57
2023-04-19T07:11:36.166Z,46.31
2023-04-19T07:14:23.338Z,46.34
2023-04-19T07:17:09.490Z,46.24
2023-04-19T07:19:55.923Z,45.67
2023-04-19T07:22:42.499Z,45.45
2023-04-19T07:25:28.882Z,45.05
2023-04-19T07:28:15.574Z,44.30
2023-04-19T07:31:02.222Z,43.93
2023-04-19T07:33:50.361Z,44.94
2023-04-19T07:36:37.259Z,45.97
2023-04-19T07:39:24.352Z,46.85
2023-04-19T07:42:11.557Z,46.95
2023-04-19T07:44:59.028Z,46.74
2023-04-19T07:47:45.918Z,43.94
2023-04-19T07:50:34.389Z,42.04
2023-04-19T07:53:20.763Z,40.53
2023-04-19T07:56:08.480Z,39.50
2023-04-19T07:59:06.968Z,39.93
2023-04-19T08:01:55.344Z,40.76
2023-04-19T08:04:42.567Z,41.09
2023-04-19T08:07:33.037Z,42.11
2023-04-19T08:10:20.710Z,43.02
2023-04-19T08:13:08.622Z,44.47
2023-04-19T08:18:45.700Z,47.57
2023-04-19T08:21:40.677Z,49.92
2023-04-19T08:24:28.233Z,51.98
2023-04-19T08:27:15.116Z,53.93
2023-04-19T08:30:02.895Z,55.68
2023-04-19T08:32:49.546Z,57.11
2023-04-19T08:35:40.781Z,57.80
2023-04-19T08:38:27.052Z,58.80
2023-04-19T08:41:14.825Z,59.42
2023-04-19T08:44:02.978Z,60.72
2023-04-19T08:46:50.062Z,61.55
2023-04-19T08:49:41.371Z,62.37
2023-04-19T08:52:32.931Z,63.17
2023-04-19T08:55:20.562Z,63.84
2023-04-19T08:58:12.297Z,64.59
2023-04-19T09:01:07.793Z,64.73
2023-04-19T09:04:01.361Z,65.41
2023-04-19T09:06:55.188Z,65.76
2023-04-19T09:09:55.674Z,65.72
2023-04-19T09:13:05.576Z,65.93
2023-04-19T09:15:56.699Z,66.35
2023-04-19T09:19:11.409Z,66.57
2023-04-19T09:22:15.352Z,67.78
2023-04-19T09:28:16.426Z,70.09
2023-04-19T09:31:38.897Z,70.74
2023-04-19T09:34:23.982Z,72.28
2023-04-19T09:37:18.904Z,72.63
2023-04-19T09:40:25.244Z,74.73
2023-04-19T09:46:04.268Z,77.58
2023-04-19T09:48:51.254Z,78.99
2023-04-19T09:51:41.960Z,80.18
2023-04-19T09:54:29.395Z,80.96
2023-04-19T09:57:16.388Z,81.86
2023-04-19T10:00:06.878Z,83.50
2023-04-19T10:03:00.031Z,84.35
2023-04-19T10:05:46.552Z,84.95
2023-04-19T10:08:33.199Z,85.58
2023-04-19T10:11:26.778Z,86.14
2023-04-19T10:14:16.055Z,87.59
2023-04-19T10:17:02.855Z,88.14
2023-04-19T10:20:06.110Z,89.51
2023-04-19T10:22:52.706Z,89.65
2023-04-19T10:25:40.384Z,90.65
2023-04-19T10:28:30.414Z,91.30
2023-04-19T10:31:23.151Z,92.04
2023-04-19T10:34:12.490Z,92.31
2023-04-19T10:36:59.149Z,92.68
2023-04-19T10:39:45.458Z,93.40
2023-04-19T10:43:13.633Z,92.79
2023-04-19T10:46:15.343Z,93.44
2023-04-19T10:49:04.654Z,93.49
2023-04-19T10:51:57.521Z,93.38
2023-04-19T10:54:44.751Z,93.63
2023-04-19T10:58:08.359Z,94.39
2023-04-19T11:01:39.909Z,94.81
2023-04-19T11:04:29.420Z,95.41
2023-04-19T11:07:20.849Z,95.58
2023-04-19T11:10:09.529Z,95.57
2023-04-19T11:12:57.247Z,95.61
2023-04-19T11:15:43.620Z,95.30
2023-04-19T11:18:30.589Z,95.27
2023-04-19T11:21:20.835Z,95.17
2023-04-19T11:24:07.949Z,94.82
2023-04-19T11:26:57.120Z,94.10
2023-04-19T11:29:43.961Z,93.78
2023-04-19T11:32:31.674Z,93.85
2023-04-19T11:35:21.280Z,93.75
2023-04-19T11:38:49.637Z,93.32
2023-04-19T11:41:39.445Z,92.99
2023-04-19T11:44:26.437Z,92.44
2023-04-19T11:47:12.943Z,91.85
2023-04-19T11:50:37.610Z,91.74
2023-04-19T11:53:26.722Z,91.24
2023-04-19T11:56:14.700Z,90.79
2023-04-19T11:59:01.202Z,89.74
2023-04-19T12:01:47.394Z,89.39
2023-04-19T12:04:34.555Z,89.21
2023-04-19T12:07:21.485Z,89.22
2023-04-19T12:10:11.731Z,88.19
2023-04-19T12:12:58.909Z,87.36
2023-04-19T12:15:46.321Z,87.90
2023-04-19T12:18:51.037Z,87.67
2023-04-19T12:21:37.613Z,86.08
2023-04-19T12:24:23.695Z,85.71
2023-04-19T12:27:10.963Z,85.71
2023-04-19T12:29:58.507Z,84.89
2023-04-19T12:32:44.638Z,84.12
2023-04-19T12:35:33.545Z,84.54
2023-04-19T12:38:19.804Z,82.95
2023-04-19T12:41:06.189Z,82.83
2023-04-19T12:43:52.637Z,82.78
2023-04-19T12:46:38.944Z,82.53
2023-04-19T12:49:25.226Z,81.43
2023-04-19T12:52:11.472Z,79.64
2023-04-19T12:54:57.911Z,79.64
2023-04-19T12:57:44.193Z,78.45
2023-04-19T13:00:30.535Z,77.78
2023-04-19T13:03:16.841Z,77.40
2023-04-19T13:06:04.060Z,77.14
2023-04-19T13:08:51.013Z,77.06
2023-04-19T13:11:37.499Z,77.35
2023-04-19T13:14:28.476Z,76.41
2023-04-19T13:17:15.061Z,74.66
2023-04-19T13:20:01.511Z,75.04
2023-04-19T13:22:47.636Z,75.37
2023-04-19T13:25:35.116Z,76.12
2023-04-19T13:28:22.020Z,74.47
2023-04-19T13:31:08.457Z,72.17
2023-04-19T13:33:55.085Z,73.68
2023-04-19T13:36:41.676Z,73.93
2023-04-19T13:39:28.193Z,73.70
2023-04-19T13:42:15.154Z,71.99
2023-04-19T13:45:02.702Z,72.12
2023-04-19T13:47:51.241Z,72.08
2023-04-19T13:50:39.019Z,71.49
2023-04-19T13:53:27.021Z,70.29
2023-04-19T13:56:14.600Z,69.57
2023-04-19T13:59:00.724Z,67.92
2023-04-19T14:01:47.166Z,68.50
2023-04-19T14:04:33.529Z,68.29
2023-04-19T14:07:23.075Z,67.95
2023-04-19T14:10:26.682Z,67.63
2023-04-19T14:13:41.230Z,66.95
2023-04-19T14:16:41.591Z,67.12
2023-04-19T14:19:39.411Z,65.50
2023-04-19T14:22:38.533Z,65.21
2023-04-19T14:25:29.876Z,63.94
2023-04-19T14:28:17.662Z,63.75
2023-04-19T14:31:04.154Z,64.24
2023-04-19T14:33:52.961Z,64.48
2023-04-19T14:36:46.306Z,63.52
2023-04-19T14:39:33.948Z,63.35
2023-04-19T14:42:23.126Z,62.71
2023-04-19T14:45:09.971Z,62.95
2023-04-19T14:47:56.597Z,62.44
2023-04-19T14:50:43.146Z,62.28
2023-04-19T14:53:29.891Z,61.86
2023-04-19T14:56:17.011Z,61.81
2023-04-19T14:59:09.273Z,62.17
2023-04-19T15:01:58.708Z,61.22
2023-04-19T15:04:45.970Z,61.45
2023-04-19T15:07:32.482Z,61.08
2023-04-19T15:10:19.664Z,61.83
2023-04-19T15:13:05.927Z,61.21
2023-04-19T15:15:52.472Z,60.70
2023-04-19T15:18:39.253Z,61.56
2023-04-19T15:21:27.763Z,61.13
2023-04-19T15:24:14.729Z,61.76
2023-04-19T15:27:03.502Z,62.46
2023-04-19T15:29:49.997Z,62.54
2023-04-19T15:32:38.060Z,62.01
2023-04-19T15:35:24.999Z,61.53
2023-04-19T15:38:11.722Z,62.54
2023-04-19T15:41:00.562Z,63.00
2023-04-19T15:43:47.722Z,63.10
2023-04-19T15:46:35.180Z,64.03
2023-04-19T15:49:22.143Z,64.63
2023-04-19T15:52:08.717Z,64.70
2023-04-19T15:54:55.421Z,64.71
2023-04-19T15:57:43.361Z,65.40
2023-04-19T16:00:30.481Z,65.10
2023-04-19T16:03:19.044Z,65.28
2023-04-19T16:06:05.307Z,65.62
2023-04-19T16:08:52.287Z,66.02
2023-04-19T16:11:39.388Z,66.28
2023-04-19T16:14:25.896Z,66.57
2023-04-19T16:17:12.888Z,66.49
2023-04-19T16:20:00.378Z,66.61
2023-04-19T16:22:49.078Z,66.44
2023-04-19T16:25:35.424Z,66.57
2023-04-19T16:28:22.701Z,66.88
2023-04-19T16:31:10.543Z,66.81
2023-04-19T16:33:57.141Z,66.90
2023-04-19T16:36:46.916Z,67.49
2023-04-19T16:39:33.090Z,67.68
2023-04-19T16:42:19.240Z,68.39
2023-04-19T16:45:08.669Z,68.34
2023-04-19T16:47:54.861Z,68.34
2023-04-19T16:50:41.388Z,68.67
2023-04-19T16:53:27.788Z,69.29
2023-04-19T16:56:17.080Z,69.87
2023-04-19T16:59:03.323Z,70.25
2023-04-19T17:01:53.343Z,70.68
2023-04-19T17:04:42.396Z,70.73
2023-04-19T17:07:28.959Z,71.22
2023-04-19T17:10:15.878Z,71.61
2023-04-19T17:13:02.700Z,71.93
2023-04-19T17:15:50.182Z,72.24
2023-04-19T17:18:38.871Z,72.44
2023-04-19T17:21:25.497Z,72.67
2023-04-19T17:24:12.916Z,72.78
2023-04-19T17:27:00.305Z,73.21
2023-04-19T17:29:46.535Z,73.30
2023-04-19T17:32:33.015Z,73.39
2023-04-19T17:35:19.597Z,73.33
2023-04-19T17:38:05.894Z,73.63
2023-04-19T17:40:53.371Z,73.79
2023-04-19T17:43:39.677Z,74.05
2023-04-19T17:46:25.952Z,74.14
2023-04-19T17:49:12.931Z,74.22
2023-04-19T17:51:59.745Z,74.56
2023-04-19T17:54:46.046Z,74.87
2023-04-19T17:57:33.638Z,75.20
2023-04-19T18:00:20.156Z,75.17
2023-04-19T18:03:10.272Z,75.29
2023-04-19T18:05:56.717Z,75.06
2023-04-19T18:08:45.416Z,75.04
2023-04-19T18:11:31.751Z,74.90
2023-04-19T18:14:18.400Z,74.61
2023-04-19T18:17:05.587Z,74.86
2023-04-19T18:19:52.118Z,74.58
2023-04-19T18:22:40.077Z,74.83
2023-04-19T18:25:26.660Z,75.02
2023-04-19T18:28:13.875Z,75.05
2023-04-19T18:31:01.433Z,75.20
2023-04-19T18:33:48.788Z,75.57
2023-04-19T18:36:35.226Z,75.94
2023-04-19T18:39:22.952Z,75.97
2023-04-19T18:42:14.081Z,75.84
2023-04-19T18:45:01.889Z,76.04
2023-04-19T18:47:48.486Z,76.14
2023-04-19T18:50:37.985Z,76.20
2023-04-19T18:53:28.007Z,76.19
2023-04-19T18:56:14.583Z,77.27
2023-04-19T18:59:01.646Z,77.78
2023-04-19T19:01:48.798Z,78.69
2023-04-19T19:04:51.305Z,79.29
2023-04-19T19:07:44.144Z,79.50
2023-04-19T19:11:06.680Z,79.38
2023-04-19T19:13:39.331Z,79.43
2023-04-19T19:16:25.592Z,79.44
2023-04-19T19:19:12.409Z,78.92
2023-04-19T19:21:59.034Z,79.01
2023-04-19T19:24:45.830Z,78.89
2023-04-19T19:27:35.646Z,79.01
2023-04-19T19:30:25.041Z,79.18
2023-04-19T19:33:12.815Z,78.95
2023-04-19T19:35:59.257Z,79.02
2023-04-19T19:38:46.294Z,79.17
2023-04-19T19:42:03.373Z,79.16
2023-04-19T19:44:42.035Z,79.23
2023-04-19T19:47:34.665Z,79.53
2023-04-19T19:53:11.234Z,79.68
2023-04-19T19:55:59.381Z,79.80
2023-04-19T19:58:50.098Z,79.83
2023-04-19T20:01:38.085Z,79.83
2023-04-19T20:04:25.983Z,80.02
2023-04-19T20:10:02.484Z,80.00
2023-04-19T20:12:48.380Z,80.04
2023-04-19T20:15:37.382Z,79.91
2023-04-19T20:18:23.551Z,79.85
2023-04-19T20:21:09.758Z,79.85
2023-04-19T20:23:56.583Z,79.82
2023-04-19T20:26:43.660Z,79.78
2023-04-19T20:29:31.433Z,79.81
2023-04-19T20:32:18.226Z,80.07
2023-04-19T20:35:09.489Z,80.11
2023-04-19T20:38:02.101Z,80.19
2023-04-19T20:40:48.565Z,80.06
2023-04-19T20:43:34.817Z,80.55
2023-04-19T20:46:21.402Z,80.61
2023-04-19T20:49:08.363Z,80.93
2023-04-19T20:51:55.886Z,81.17
2023-04-19T20:54:42.536Z,81.52
2023-04-19T20:57:28.758Z,81.88
2023-04-19T21:00:16.195Z,81.90
2023-04-19T21:03:05.453Z,81.79
2023-04-19T21:06:00.414Z,81.54
2023-04-19T21:08:51.317Z,81.37
2023-04-19T21:11:37.785Z,81.28
2023-04-19T21:14:24.400Z,81.09
2023-04-19T21:17:11.846Z,81.07
2023-04-19T21:19:58.334Z,81.05
2023-04-19T21:22:46.515Z,80.89
2023-04-19T21:25:32.986Z,80.88
2023-04-19T21:28:19.910Z,80.89
2023-04-19T21:31:09.311Z,80.98
2023-04-19T21:33:55.768Z,80.87
2023-04-19T21:36:42.094Z,81.05
2023-04-19T21:39:28.468Z,81.13
2023-04-19T21:42:14.841Z,81.35
2023-04-19T21:45:02.085Z,81.26
2023-04-19T21:47:48.577Z,81.42
2023-04-19T21:50:34.724Z,81.43
2023-04-19T21:53:21.063Z,81.44
2023-04-19T21:56:08.730Z,81.51
2023-04-19T21:58:55.105Z,81.27
2023-04-19T22:01:42.522Z,81.21
2023-04-19T22:04:30.253Z,81.20
2023-04-19T22:07:19.173Z,81.30
2023-04-19T22:10:07.715Z,81.36
2023-04-19T22:12:58.404Z,81.21
2023-04-19T22:15:45.447Z,81.38
2023-04-19T22:18:34.043Z,81.20
2023-04-19T22:21:24.127Z,81.37
2023-04-19T22:24:13.075Z,81.34
2023-04-19T22:27:01.302Z,81.58
2023-04-19T22:29:48.261Z,81.81
2023-04-19T22:32:38.351Z,82.07
2023-04-19T22:35:25.444Z,82.39
2023-04-19T22:38:11.778Z,82.77
2023-04-19T22:40:58.283Z,82.89
2023-04-19T22:43:44.897Z,83.11
2023-04-19T22:46:32.342Z,83.35
2023-04-19T22:49:21.556Z,83.75
2023-04-19T22:52:08.486Z,83.80
2023-04-19T22:54:54.999Z,84.12
2023-04-19T22:57:42.511Z,84.63
2023-04-19T23:00:28.935Z,84.55
2023-04-19T23:03:16.656Z,84.59
2023-04-19T23:06:03.885Z,84.65
2023-04-19T23:08:51.925Z,85.16
2023-04-19T23:11:40.147Z,84.90
2023-04-19T23:14:28.752Z,84.96
2023-04-19T23:17:16.802Z,85.40
2023-04-19T23:20:04.935Z,85.55
2023-04-19T23:22:52.821Z,85.82
2023-04-19T23:25:40.653Z,86.07
2023-04-19T23:28:27.451Z,85.92
2023-04-19T23:31:14.809Z,86.11
2023-04-19T23:34:02.299Z,86.10
2023-04-19T23:36:48.988Z,86.34
2023-04-19T23:39:35.642Z,86.23
2023-04-19T23:42:22.390Z,86.31
2023-04-19T23:45:09.750Z,86.46
2023-04-19T23:47:57.709Z,86.48
2023-04-19T23:50:46.980Z,86.49
2023-04-19T23:53:34.578Z,86.67
2023-04-19T23:56:21.624Z,86.63
2023-04-19T23:59:08.286Z,86.66
